Aérodrome :
LOGIN :

S'inscrire | Disclaimer

   EN    FR    IT 

 










Légende :    VFR   VFR Marginal   IFR   IFR Intensif   IFR Très Intensif
Visi : 
Plafond : 
>= 8 km
>= 3000ft
5 à 8 km
1000 à 3000 ft
1500m à 5 km
500 à 1000 ft
800 à 1500m
200 à 500 ft
< 800m
< 200 ft
Symboles :   Orages  Brouillard  Fortes neiges  Fortes précipitations  Vent > 20 kt
SIGMETs :   Divers  Orages  Givrage  Turbulence  Onde Orograph.  Cendres Volcan.






- Altitude de l'aérodrome : 390 ft
- Code IATA : NQY


EGHQ - Newquay

DERNIER METAR :
  • 172120Z 28013KT 9999 FEW020 07/04 Q1021

METARs EXPIRÉS :
  • 172050Z 28014KT 9999 FEW023 07/04 Q1021
  • 172020Z 28014KT 9999 FEW024 07/03 Q1021
  • 171950Z 27015KT 9999 VCSH FEW025 07/03 Q1020
  • 171920Z 27017KT 9999 VCSH FEW023 06/03 Q1020 RERA
  • 171850Z 28018KT 9999 FEW030 07/03 Q1019

TAF TAF EGHQ
Valide du 17 à 21h jusqu'au 18 à 06h UTC


171957Z 1721/1806 27015KT 9999 SCT025
BECMG 1721/1724 28005KT
TEMPO 1721/1724 7000 SHRA



MET'MAP, la Météo Aéronautique d'un coup d'oeil ! - Copyright ORBIFLY Décembre 2007 - Disclaimer

ORBIFLY MET'MAP TEAM :

Programmation & Développement : Alexandra Zaïnal
Sur une idée originale de : Baudouin d'Aumeries
Assistance à la programmation : Marc-Olivier Méhu
Soutien technique & logistique : Manuel Goepfert

Contact : metmap@orbifly.com




SOURCES & CREDITS :

   NOAA